createdAt,value
2018-04-06T00:01:17.056Z,101853.77
2018-04-06T00:03:44.663Z,101854.48
2018-04-06T00:06:12.264Z,101859.95
2018-04-06T00:08:39.940Z,101856.47
2018-04-06T00:11:07.547Z,101863.63
2018-04-06T00:13:35.877Z,101866.94
2018-04-06T00:16:03.479Z,101869.40
2018-04-06T00:18:31.204Z,101886.39
2018-04-06T00:20:58.868Z,101891.42
2018-04-06T00:23:26.504Z,101894.69
2018-04-06T00:25:54.192Z,101887.69
2018-04-06T00:28:21.824Z,101889.34
2018-04-06T00:30:49.423Z,101886.67
2018-04-06T00:33:17.052Z,101888.22
2018-04-06T00:35:44.740Z,101898.34
2018-04-06T00:38:12.368Z,101893.91
2018-04-06T00:40:39.968Z,101901.06
2018-04-06T00:43:07.596Z,101900.52
2018-04-06T00:45:35.293Z,101895.20
2018-04-06T00:48:02.952Z,101901.92
2018-04-06T00:50:30.560Z,101893.27
2018-04-06T00:52:58.276Z,101903.77
2018-04-06T00:55:25.941Z,101910.10
2018-04-06T00:57:53.612Z,101911.68
2018-04-06T01:00:21.268Z,101912.48
2018-04-06T01:02:48.927Z,101911.94
2018-04-06T01:05:16.537Z,101923.78
2018-04-06T01:07:44.166Z,101922.75
2018-04-06T01:10:11.820Z,101936.39
2018-04-06T01:12:39.448Z,101935.48
2018-04-06T01:15:07.144Z,101940.02
2018-04-06T01:17:34.748Z,101947.20
2018-04-06T01:20:02.379Z,101950.50
2018-04-06T01:22:30.024Z,101956.88
2018-04-06T01:24:57.702Z,101956.77
2018-04-06T01:27:25.301Z,101957.09
2018-04-06T01:29:53.012Z,101956.18
2018-04-06T01:32:20.620Z,101956.07
2018-04-06T01:34:48.252Z,101952.48
2018-04-06T01:37:15.868Z,101961.81
2018-04-06T01:39:43.495Z,101959.11
2018-04-06T01:42:11.125Z,101962.00
2018-04-06T01:44:38.783Z,101969.10
2018-04-06T01:47:06.392Z,101963.50
2018-04-06T01:49:34.117Z,101971.04
2018-04-06T01:52:01.780Z,101971.00
2018-04-06T01:54:29.409Z,101975.62
2018-04-06T01:56:57.020Z,101975.14
2018-04-06T01:59:24.768Z,101984.08
2018-04-06T02:01:52.376Z,101985.80
2018-04-06T02:04:20.008Z,101985.80
2018-04-06T02:06:47.617Z,101995.10
2018-04-06T02:09:15.317Z,102007.59
2018-04-06T02:11:42.929Z,101998.22
2018-04-06T02:14:10.552Z,101999.90
2018-04-06T02:16:38.196Z,102005.63
2018-04-06T02:19:05.864Z,102003.94
2018-04-06T02:21:33.539Z,101998.25
2018-04-06T02:24:01.180Z,102009.76
2018-04-06T02:26:28.788Z,102013.64
2018-04-06T02:28:56.404Z,102018.73
2018-04-06T02:31:24.081Z,102020.86
2018-04-06T02:33:51.689Z,102015.29
2018-04-06T02:36:19.322Z,102020.70
2018-04-06T02:38:46.925Z,102024.03
2018-04-06T02:41:14.562Z,102025.28
2018-04-06T02:43:42.340Z,102024.80
2018-04-06T02:46:15.725Z,102030.01
2018-04-06T02:48:43.328Z,102037.33
2018-04-06T02:51:10.960Z,102039.98
2018-04-06T02:53:38.569Z,102039.29
2018-04-06T02:56:06.233Z,102031.70
2018-04-06T02:58:33.844Z,102042.41
2018-04-06T03:01:01.483Z,102042.81
2018-04-06T03:03:29.216Z,102050.39
2018-04-06T03:05:56.844Z,102048.66
2018-04-06T03:08:24.452Z,102047.71
2018-04-06T03:10:52.099Z,102058.73
2018-04-06T03:13:19.774Z,102051.88
2018-04-06T03:15:47.400Z,102056.85
2018-04-06T03:18:15.092Z,102056.70
2018-04-06T03:20:42.725Z,102066.95
2018-04-06T03:23:10.345Z,102072.77
2018-04-06T03:25:37.974Z,102069.17
2018-04-06T03:28:05.649Z,102077.19
2018-04-06T03:30:33.285Z,102079.20
2018-04-06T03:33:00.969Z,102077.47
2018-04-06T03:35:28.623Z,102072.19
2018-04-06T03:37:56.696Z,102076.36
2018-04-06T03:40:24.365Z,102071.16
2018-04-06T03:42:52.025Z,102073.72
2018-04-06T03:45:19.636Z,102078.41
2018-04-06T03:47:47.273Z,102074.84
2018-04-06T03:50:14.916Z,102070.92
2018-04-06T03:52:42.576Z,102080.29
2018-04-06T03:55:10.180Z,102075.89
2018-04-06T03:57:37.905Z,102076.58
2018-04-06T04:00:05.562Z,102085.10
2018-04-06T04:02:33.241Z,102080.66
2018-04-06T04:05:00.892Z,102078.38
2018-04-06T04:07:28.516Z,102075.27
2018-04-06T04:09:56.128Z,102079.62
2018-04-06T04:12:23.871Z,102081.83
2018-04-06T04:14:51.485Z,102091.44
2018-04-06T04:17:19.414Z,102098.95
2018-04-06T04:19:47.022Z,102096.59
2018-04-06T04:22:14.732Z,102098.52
2018-04-06T04:24:42.342Z,102102.27
2018-04-06T04:27:09.968Z,102096.97
2018-04-06T04:29:37.615Z,102096.00
2018-04-06T04:32:05.265Z,102103.93
2018-04-06T04:34:32.940Z,102100.20
2018-04-06T04:37:00.577Z,102099.11
2018-04-06T04:39:28.273Z,102100.44
2018-04-06T04:41:55.927Z,102103.80
2018-04-06T04:44:23.596Z,102099.95
2018-04-06T04:46:51.222Z,102109.85
2018-04-06T04:49:18.919Z,102112.48
2018-04-06T04:51:46.613Z,102123.67
2018-04-06T04:54:14.229Z,102125.02
2018-04-06T04:56:41.864Z,102121.26
2018-04-06T04:59:09.568Z,102123.78
2018-04-06T05:01:37.172Z,102131.08
2018-04-06T05:04:04.796Z,102128.23
2018-04-06T05:06:32.399Z,102123.58
2018-04-06T05:09:00.037Z,102131.83
2018-04-06T05:11:27.650Z,102133.82
2018-04-06T05:13:55.287Z,102134.45
2018-04-06T05:16:23.002Z,102136.89
2018-04-06T05:18:50.665Z,102136.35
2018-04-06T05:21:18.269Z,102142.67
2018-04-06T05:23:45.892Z,102145.14
2018-04-06T05:26:14.213Z,102146.73
2018-04-06T05:28:41.928Z,102155.17
2018-04-06T05:31:09.602Z,102151.59
2018-04-06T05:33:37.229Z,102149.77
2018-04-06T05:36:04.846Z,102154.73
2018-04-06T05:38:32.475Z,102157.97
2018-04-06T05:41:00.085Z,102165.68
2018-04-06T05:43:27.804Z,102166.02
2018-04-06T05:45:55.413Z,102163.31
2018-04-06T05:48:23.039Z,102172.78
2018-04-06T05:50:50.645Z,102168.87
2018-04-06T05:53:18.351Z,102172.98
2018-04-06T05:55:46.020Z,102175.00
2018-04-06T05:58:13.742Z,102177.91
2018-04-06T06:00:41.324Z,102188.98
2018-04-06T06:03:09.689Z,102184.98
2018-04-06T06:05:37.390Z,102195.23
2018-04-06T06:08:05.029Z,102199.41
2018-04-06T06:10:32.708Z,102200.98
2018-04-06T06:13:00.346Z,102206.09
2018-04-06T06:15:27.978Z,102196.55
2018-04-06T06:17:55.588Z,102211.52
2018-04-06T06:20:23.218Z,102207.92
2018-04-06T06:22:50.828Z,102206.14
2018-04-06T06:25:18.480Z,102214.22
2018-04-06T06:27:46.149Z,102218.06
2018-04-06T06:30:13.781Z,102219.78
2018-04-06T06:32:41.477Z,102216.27
2018-04-06T06:35:09.128Z,102221.81
2018-04-06T06:37:36.741Z,102219.19
2018-04-06T06:40:04.465Z,102218.76
2018-04-06T06:42:32.079Z,102220.39
2018-04-06T06:44:59.713Z,102225.92
2018-04-06T06:47:27.441Z,102223.26
2018-04-06T06:49:55.073Z,102224.08
2018-04-06T06:52:22.681Z,102225.44
2018-04-06T06:54:50.322Z,102234.08
2018-04-06T06:57:17.924Z,102230.56
2018-04-06T06:59:45.657Z,102233.54
2018-04-06T07:02:13.397Z,102241.30
2018-04-06T07:04:41.081Z,102240.21
2018-04-06T07:07:08.692Z,102243.06
2018-04-06T07:09:36.412Z,102236.44
2018-04-06T07:12:04.069Z,102235.45
2018-04-06T07:14:31.692Z,102241.41
2018-04-06T07:16:59.302Z,102235.64
2018-04-06T07:19:26.966Z,102237.56
2018-04-06T07:21:54.625Z,102234.81
2018-04-06T07:24:22.287Z,102237.15
2018-04-06T07:26:49.894Z,102232.76
2018-04-06T07:29:17.609Z,102240.88
2018-04-06T07:31:45.281Z,102242.91
2018-04-06T07:34:12.888Z,102239.83
2018-04-06T07:36:40.593Z,102240.22
2018-04-06T07:39:08.265Z,102245.22
2018-04-06T07:41:36.023Z,102250.98
2018-04-06T07:44:03.629Z,102245.50
2018-04-06T07:46:31.264Z,102243.53
2018-04-06T07:48:59.016Z,102258.34
2018-04-06T07:51:26.671Z,102248.25
2018-04-06T07:53:54.272Z,102251.30
2018-04-06T07:56:22.388Z,102263.63
2018-04-06T07:58:49.644Z,102261.20
2018-04-06T08:01:17.285Z,102271.31
2018-04-06T08:03:44.956Z,102268.00
2018-04-06T08:06:12.584Z,102276.02
2018-04-06T08:08:40.216Z,102276.21
2018-04-06T08:11:07.882Z,102285.37
2018-04-06T08:13:35.637Z,102277.09
2018-04-06T08:16:03.263Z,102291.13
2018-04-06T08:18:30.868Z,102298.17
2018-04-06T08:20:58.512Z,102296.69
2018-04-06T08:23:26.193Z,102293.50
2018-04-06T08:25:53.847Z,102294.66
2018-04-06T08:28:21.465Z,102303.50
2018-04-06T08:30:49.096Z,102304.55
2018-04-06T08:33:16.741Z,102306.50
2018-04-06T08:35:44.404Z,102307.21
2018-04-06T08:38:12.018Z,102306.72
2018-04-06T08:40:39.654Z,102301.83
2018-04-06T08:43:07.286Z,102309.05
2018-04-06T08:45:34.912Z,102313.90
2018-04-06T08:48:02.556Z,102315.31
2018-04-06T08:50:30.275Z,102320.69
2018-04-06T08:52:57.944Z,102320.89
2018-04-06T08:55:25.604Z,102325.45
2018-04-06T08:57:53.212Z,102327.30
2018-04-06T09:00:20.808Z,102326.18
2018-04-06T09:02:48.449Z,102320.45
2018-04-06T09:05:16.065Z,102330.31
2018-04-06T09:07:43.728Z,102331.02
2018-04-06T09:10:11.328Z,102321.47
2018-04-06T09:12:39.006Z,102331.19
2018-04-06T09:15:06.700Z,102337.64
2018-04-06T09:17:34.370Z,102339.16
2018-04-06T09:20:02.019Z,102338.67
2018-04-06T09:22:29.662Z,102334.66
2018-04-06T09:24:57.344Z,102329.56
2018-04-06T09:27:25.021Z,102321.31
2018-04-06T09:29:52.632Z,102325.30
2018-04-06T09:32:20.333Z,102303.86
2018-04-06T09:34:48.010Z,102315.03
2018-04-06T09:37:15.632Z,102317.98
2018-04-06T09:39:43.244Z,102319.22
2018-04-06T09:42:10.874Z,102313.02
2018-04-06T09:44:38.475Z,102319.67
2018-04-06T09:47:06.102Z,102324.27
2018-04-06T09:49:33.712Z,102321.06
2018-04-06T09:52:01.534Z,102318.63
2018-04-06T09:54:29.155Z,102321.49
2018-04-06T09:56:56.776Z,102320.46
2018-04-06T09:59:24.388Z,102321.67
2018-04-06T10:02:01.916Z,102313.11
2018-04-06T10:04:29.515Z,102313.15
2018-04-06T10:06:57.135Z,102310.86
2018-04-06T10:09:24.800Z,102308.94
2018-04-06T10:11:52.441Z,102307.97
2018-04-06T10:14:20.134Z,102312.13
2018-04-06T10:16:47.770Z,102306.75
2018-04-06T10:19:15.372Z,102308.95
2018-04-06T10:21:43.116Z,102302.64
2018-04-06T10:24:10.725Z,102307.17
2018-04-06T10:26:38.361Z,102307.63
2018-04-06T10:29:05.973Z,102302.64
2018-04-06T10:31:33.605Z,102308.46
2018-04-06T10:34:01.218Z,102310.86
2018-04-06T10:36:28.885Z,102318.86
2018-04-06T10:38:56.549Z,102320.31
2018-04-06T10:41:24.176Z,102326.40
2018-04-06T10:43:51.786Z,102324.36
2018-04-06T10:46:19.419Z,102321.08
2018-04-06T10:48:47.029Z,102323.52
2018-04-06T10:51:14.631Z,102328.83
2018-04-06T10:53:42.264Z,102321.92
2018-04-06T10:56:09.881Z,102328.30
2018-04-06T10:58:37.582Z,102325.70
2018-04-06T11:01:05.188Z,102333.18
2018-04-06T11:03:32.865Z,102331.09
2018-04-06T11:06:00.476Z,102332.48
2018-04-06T11:08:28.108Z,102334.44
2018-04-06T11:10:55.763Z,102327.16
2018-04-06T11:13:23.388Z,102336.88
2018-04-06T11:15:50.992Z,102338.40
2018-04-06T11:18:18.620Z,102340.33
2018-04-06T11:20:46.237Z,102339.61
2018-04-06T11:23:13.972Z,102343.36
2018-04-06T11:25:41.585Z,102337.08
2018-04-06T11:28:09.226Z,102338.23
2018-04-06T11:30:36.887Z,102347.02
2018-04-06T11:33:04.612Z,102339.91
2018-04-06T11:35:32.238Z,102349.56
2018-04-06T11:38:00.554Z,102337.68
2018-04-06T11:40:28.144Z,102344.32
2018-04-06T11:42:55.884Z,102344.14
2018-04-06T11:45:23.496Z,102338.20
2018-04-06T11:47:51.132Z,102334.45
2018-04-06T11:50:18.768Z,102337.70
2018-04-06T11:52:46.528Z,102344.86
2018-04-06T11:55:14.154Z,102340.20
2018-04-06T11:57:41.860Z,102338.04
2018-04-06T12:00:09.494Z,102328.06
2018-04-06T12:02:37.118Z,102329.79
2018-04-06T12:05:04.752Z,102324.61
2018-04-06T12:07:32.403Z,102330.40
2018-04-06T12:10:00.054Z,102333.20
2018-04-06T12:12:27.727Z,102327.74
2018-04-06T12:14:55.366Z,102333.11
2018-04-06T12:17:23.061Z,102332.02
2018-04-06T12:19:50.717Z,102330.44
2018-04-06T12:22:18.319Z,102334.45
2018-04-06T12:24:45.944Z,102332.91
2018-04-06T12:27:13.548Z,102333.50
2018-04-06T12:29:41.272Z,102333.59
2018-04-06T12:32:08.882Z,102327.23
2018-04-06T12:34:36.518Z,102329.41
2018-04-06T12:37:04.149Z,102332.08
2018-04-06T12:39:31.811Z,102330.91
2018-04-06T12:41:59.474Z,102334.08
2018-04-06T12:44:27.109Z,102324.56
2018-04-06T12:46:54.809Z,102325.58
2018-04-06T12:49:22.463Z,102326.68
2018-04-06T12:51:50.072Z,102332.95
2018-04-06T12:54:17.705Z,102327.01
2018-04-06T12:56:45.321Z,102328.39
2018-04-06T12:59:12.948Z,102327.54
2018-04-06T13:01:40.562Z,102328.05
2018-04-06T13:04:08.216Z,102328.49
2018-04-06T13:06:35.833Z,102323.20
2018-04-06T13:09:03.448Z,102326.58
2018-04-06T13:11:31.080Z,102324.34
2018-04-06T13:13:58.691Z,102325.27
2018-04-06T13:16:26.317Z,102322.17
2018-04-06T13:18:54.019Z,102322.59
2018-04-06T13:21:21.644Z,102317.82
2018-04-06T13:23:49.332Z,102323.13
2018-04-06T13:26:17.005Z,102321.91
2018-04-06T13:28:44.612Z,102325.09
2018-04-06T13:31:12.267Z,102323.53
2018-04-06T13:33:39.983Z,102316.38
2018-04-06T13:36:07.620Z,102313.94
2018-04-06T13:38:35.316Z,102316.09
2018-04-06T13:41:02.945Z,102317.41
2018-04-06T13:43:30.653Z,102315.69
2018-04-06T13:45:58.308Z,102318.34
2018-04-06T13:48:25.964Z,102308.02
2018-04-06T13:50:53.591Z,102307.31
2018-04-06T13:53:21.192Z,102305.80
2018-04-06T13:55:48.816Z,102309.44
2018-04-06T13:58:16.549Z,102299.14
2018-04-06T14:00:44.273Z,102300.59
2018-04-06T14:03:11.936Z,102294.16
2018-04-06T14:05:39.564Z,102298.52
2018-04-06T14:08:07.164Z,102294.23
2018-04-06T14:10:34.839Z,102290.77
2018-04-06T14:13:02.444Z,102285.04
2018-04-06T14:15:30.078Z,102286.27
2018-04-06T14:17:57.693Z,102288.80
2018-04-06T14:20:25.324Z,102279.62
2018-04-06T14:22:53.042Z,102280.45
2018-04-06T14:25:20.657Z,102272.17
2018-04-06T14:27:48.294Z,102270.48
2018-04-06T14:30:15.896Z,102270.12
2018-04-06T14:32:43.584Z,102271.01
2018-04-06T14:35:11.244Z,102265.50
2018-04-06T14:37:38.982Z,102272.24
2018-04-06T14:40:06.593Z,102271.58
2018-04-06T14:42:34.236Z,102281.64
2018-04-06T14:45:01.911Z,102275.22
2018-04-06T14:47:29.577Z,102276.86
2018-04-06T14:49:57.193Z,102282.88
2018-04-06T14:52:24.893Z,102273.75
2018-04-06T14:54:52.512Z,102269.41
2018-04-06T14:57:20.148Z,102267.67
2018-04-06T14:59:47.757Z,102266.44
2018-04-06T15:02:15.438Z,102275.65
2018-04-06T15:04:43.502Z,102269.48
2018-04-06T15:07:11.136Z,102270.00
2018-04-06T15:09:38.744Z,102266.53
2018-04-06T15:12:06.495Z,102261.31
2018-04-06T15:14:34.156Z,102259.05
2018-04-06T15:17:01.784Z,102263.39
2018-04-06T15:19:29.490Z,102261.47
2018-04-06T15:21:57.121Z,102260.72
2018-04-06T15:24:24.813Z,102252.91
2018-04-06T15:26:52.454Z,102252.41
2018-04-06T15:29:20.065Z,102255.90
2018-04-06T15:31:47.700Z,102254.59
2018-04-06T15:34:15.303Z,102259.44
2018-04-06T15:36:42.935Z,102253.77
2018-04-06T15:39:10.584Z,102257.19
2018-04-06T15:41:38.217Z,102252.34
2018-04-06T15:44:05.833Z,102254.02
2018-04-06T15:46:33.564Z,102257.48
2018-04-06T15:49:01.173Z,102259.14
2018-04-06T15:51:29.057Z,102251.55
2018-04-06T15:53:56.665Z,102261.53
2018-04-06T15:56:24.389Z,102261.89
2018-04-06T15:58:52.088Z,102254.43
2018-04-06T16:01:20.155Z,102255.72
2018-04-06T16:03:47.796Z,102261.81
2018-04-06T16:06:15.409Z,102261.74
2018-04-06T16:08:43.245Z,102261.65
2018-04-06T16:11:10.853Z,102263.76
2018-04-06T16:13:38.622Z,102261.97
2018-04-06T16:16:06.208Z,102261.45
2018-04-06T16:18:33.912Z,102263.54
2018-04-06T16:21:01.516Z,102269.49
2018-04-06T16:23:29.160Z,102273.76
2018-04-06T16:25:56.760Z,102276.35
2018-04-06T16:28:24.387Z,102278.97
2018-04-06T16:30:52.008Z,102268.16
2018-04-06T16:33:19.678Z,102269.03
2018-04-06T16:35:47.306Z,102261.22
2018-04-06T16:38:14.992Z,102257.73
2018-04-06T16:40:42.660Z,102260.23
2018-04-06T16:43:10.283Z,102261.15
2018-04-06T16:45:37.990Z,102257.61
2018-04-06T16:48:05.624Z,102259.28
2018-04-06T16:50:33.318Z,102267.59
2018-04-06T16:53:00.956Z,102259.88
2018-04-06T16:55:28.570Z,102265.34
2018-04-06T16:57:56.397Z,102267.88
2018-04-06T17:00:24.069Z,102267.86
2018-04-06T17:02:51.709Z,102264.58
2018-04-06T17:05:19.357Z,102263.98
2018-04-06T17:07:47.028Z,102270.78
2018-04-06T17:10:14.857Z,102272.80
2018-04-06T17:12:42.680Z,102263.86
2018-04-06T17:15:10.316Z,102255.29
2018-04-06T17:17:38.124Z,102251.88
2018-04-06T17:20:05.743Z,102249.63
2018-04-06T17:22:33.545Z,102254.66
2018-04-06T17:25:01.301Z,102258.25
2018-04-06T17:27:29.009Z,102258.27
2018-04-06T17:29:56.624Z,102251.78
2018-04-06T17:32:24.260Z,102258.20
2018-04-06T17:34:51.956Z,102254.21
2018-04-06T17:37:20.068Z,102261.94
2018-04-06T17:39:47.677Z,102263.16
2018-04-06T17:42:15.454Z,102261.78
2018-04-06T17:44:43.217Z,102261.31
2018-04-06T17:47:11.025Z,102266.91
2018-04-06T17:49:38.702Z,102267.34
2018-04-06T17:52:06.320Z,102272.11
2018-04-06T17:54:33.959Z,102270.77
2018-04-06T17:57:01.942Z,102278.17
2018-04-06T17:59:29.603Z,102272.98
2018-04-06T18:01:59.216Z,102277.36
2018-04-06T18:04:26.858Z,102283.05
2018-04-06T18:06:54.629Z,102282.18
2018-04-06T18:09:22.387Z,102274.88
2018-04-06T18:11:50.076Z,102285.67
2018-04-06T18:14:17.784Z,102280.58
2018-04-06T18:16:45.391Z,102281.05
2018-04-06T18:19:13.034Z,102291.87
2018-04-06T18:21:40.729Z,102293.27
2018-04-06T18:24:08.359Z,102292.00
2018-04-06T18:26:35.969Z,102295.13
2018-04-06T18:29:03.601Z,102296.55
2018-04-06T18:31:31.220Z,102305.25
2018-04-06T18:33:58.861Z,102298.00
2018-04-06T18:36:26.501Z,102305.04
2018-04-06T18:38:54.116Z,102306.03
2018-04-06T18:41:21.780Z,102311.39
2018-04-06T18:43:49.400Z,102310.21
2018-04-06T18:46:17.035Z,102319.08
2018-04-06T18:48:44.740Z,102314.84
2018-04-06T18:51:12.363Z,102308.36
2018-04-06T18:53:39.968Z,102314.43
2018-04-06T18:56:07.593Z,102319.69
2018-04-06T18:58:35.701Z,102319.83
2018-04-06T19:01:03.423Z,102315.71
2018-04-06T19:03:31.020Z,102319.44
2018-04-06T19:05:58.681Z,102324.43
2018-04-06T19:08:26.288Z,102328.92
2018-04-06T19:10:53.970Z,102327.86
2018-04-06T19:13:21.578Z,102325.88
2018-04-06T19:15:49.304Z,102323.81
2018-04-06T19:18:16.949Z,102323.91
2018-04-06T19:20:44.571Z,102326.08
2018-04-06T19:23:12.292Z,102329.56
2018-04-06T19:25:39.912Z,102327.97
2018-04-06T19:28:07.618Z,102331.63
2018-04-06T19:30:35.244Z,102330.52
2018-04-06T19:33:02.949Z,102332.85
2018-04-06T19:35:30.708Z,102333.06
2018-04-06T19:37:58.320Z,102338.86
2018-04-06T19:40:25.944Z,102335.60
2018-04-06T19:42:54.024Z,102329.25
2018-04-06T19:45:21.661Z,102333.61
2018-04-06T19:47:49.328Z,102334.61
2018-04-06T19:50:16.949Z,102327.88
2018-04-06T19:52:44.580Z,102329.91
2018-04-06T19:55:12.180Z,102330.94
2018-04-06T19:57:39.881Z,102331.55
2018-04-06T20:00:07.493Z,102330.38
2018-04-06T20:02:35.132Z,102327.48
2018-04-06T20:05:02.765Z,102321.20
2018-04-06T20:07:30.428Z,102325.31
2018-04-06T20:09:58.029Z,102321.95
2018-04-06T20:12:25.661Z,102322.09
2018-04-06T20:14:53.276Z,102322.31
2018-04-06T20:17:20.900Z,102319.43
2018-04-06T20:19:48.506Z,102327.25
2018-04-06T20:22:16.148Z,102321.37
2018-04-06T20:24:43.748Z,102312.84
2018-04-06T20:27:11.385Z,102313.44
2018-04-06T20:29:39.005Z,102314.52
2018-04-06T20:32:06.635Z,102302.59
2018-04-06T20:34:34.253Z,102311.34
2018-04-06T20:37:01.885Z,102312.38
2018-04-06T20:39:29.494Z,102314.33
2018-04-06T20:41:57.124Z,102308.57
2018-04-06T20:44:24.733Z,102298.44
2018-04-06T20:46:52.996Z,102298.63
2018-04-06T20:49:20.593Z,102299.22
2018-04-06T20:51:48.223Z,102300.69
2018-04-06T20:54:15.836Z,102306.84
2018-04-06T20:56:43.577Z,102302.34
2018-04-06T20:59:11.239Z,102297.81
2018-04-06T21:01:38.864Z,102289.84
2018-04-06T21:04:06.560Z,102287.55
2018-04-06T21:06:34.160Z,102285.69
2018-04-06T21:09:01.790Z,102287.80
2018-04-06T21:11:29.396Z,102286.78
2018-04-06T21:13:57.028Z,102285.77
2018-04-06T21:16:24.714Z,102286.83
2018-04-06T21:18:52.339Z,102289.59
2018-04-06T21:21:19.992Z,102296.25
2018-04-06T21:23:47.656Z,102296.02
2018-04-06T21:26:15.265Z,102295.81
2018-04-06T21:28:42.888Z,102292.19
2018-04-06T21:31:10.492Z,102299.41
2018-04-06T21:33:38.208Z,102301.45
2018-04-06T21:36:05.807Z,102307.77
2018-04-06T21:38:33.427Z,102299.42
2018-04-06T21:41:01.024Z,102297.97
2018-04-06T21:43:28.740Z,102303.36
2018-04-06T21:45:56.341Z,102313.94
2018-04-06T21:48:23.976Z,102304.34
2018-04-06T21:50:52.600Z,102300.34
2018-04-06T21:53:20.237Z,102305.77
2018-04-06T21:55:47.836Z,102298.72
2018-04-06T21:58:15.469Z,102297.26
2018-04-06T22:00:43.117Z,102300.41
2018-04-06T22:03:10.744Z,102298.00
2018-04-06T22:05:38.345Z,102296.98
2018-04-06T22:08:05.969Z,102289.86
2018-04-06T22:10:33.571Z,102289.22
2018-04-06T22:13:01.202Z,102287.79
2018-04-06T22:15:28.805Z,102285.89
2018-04-06T22:17:56.433Z,102282.67
2018-04-06T22:20:24.108Z,102281.14
2018-04-06T22:22:51.774Z,102283.64
2018-04-06T22:25:19.441Z,102277.37
2018-04-06T22:27:47.054Z,102278.89
2018-04-06T22:30:14.677Z,102276.88
2018-04-06T22:32:42.281Z,102277.45
2018-04-06T22:35:09.980Z,102270.73
2018-04-06T22:37:37.645Z,102268.39
2018-04-06T22:40:05.272Z,102274.98
2018-04-06T22:42:32.872Z,102270.09
2018-04-06T22:45:00.493Z,102262.64
2018-04-06T22:47:28.111Z,102266.33
2018-04-06T22:49:55.743Z,102265.74
2018-04-06T22:52:23.411Z,102268.17
2018-04-06T22:54:51.045Z,102267.05
2018-04-06T22:57:18.745Z,102273.73
2018-04-06T22:59:46.368Z,102277.34
2018-04-06T23:02:14.064Z,102272.02
2018-04-06T23:04:41.723Z,102267.95
2018-04-06T23:07:09.325Z,102280.66
2018-04-06T23:09:36.958Z,102280.45
2018-04-06T23:12:04.612Z,102274.53
2018-04-06T23:14:32.245Z,102269.21
2018-04-06T23:16:59.938Z,102269.88
2018-04-06T23:19:27.597Z,102262.02
2018-04-06T23:21:55.274Z,102264.77
2018-04-06T23:24:22.900Z,102266.75
2018-04-06T23:26:50.589Z,102264.88
2018-04-06T23:29:18.261Z,102263.45
2018-04-06T23:31:45.891Z,102263.30
2018-04-06T23:34:13.500Z,102255.92
2018-04-06T23:36:41.124Z,102260.91
2018-04-06T23:39:08.754Z,102255.19
2018-04-06T23:41:36.459Z,102256.36
2018-04-06T23:44:04.064Z,102259.67
2018-04-06T23:46:31.705Z,102254.86
2018-04-06T23:48:59.357Z,102253.46
2018-04-06T23:51:27.012Z,102248.61
2018-04-06T23:53:54.619Z,102253.61
2018-04-06T23:56:22.256Z,102248.76
2018-04-06T23:58:49.868Z,102250.00
